Amargosa Valley, Nevada
Current Conditions -  °F | °C
As of 8:52 PM on Sunday 23 Nov 2014 (Local Time) from KDRA Reporting Station
Clear Clear  
Wind Chill: 43°   Ceiling: Unl
Heat Index: 43°   Visibility: 10mi
Dew Point:   Wind: 0mph
Humidity: 24%   Direction: NA
Pressure: 30.26"   Gusts: NA
Location:  36.64°N, 116.4°W
Report Text: KDRA 240452Z AUTO 00000KT 10SM CLR 06/M13 A3026 RMK AO2 SLP234 T00611133 $
Loading
Personal Weather Stations






























Interactive Weather Map New forecast layout! Learn more

10-Day Weather Forecast

Advertisements
Track Severe Weather on mobile